sensor_id;sensor_type;location;lat;lon;timestamp;temperature;humidity
12025;DHT22;6073;53.230;10.444;2023-03-12T00:01:34;1.20;99.90
12025;DHT22;6073;53.230;10.444;2023-03-12T00:04:01;1.20;99.90
12025;DHT22;6073;53.230;10.444;2023-03-12T00:06:26;1.00;99.90
12025;DHT22;6073;53.230;10.444;2023-03-12T00:08:52;0.90;99.90
12025;DHT22;6073;53.230;10.444;2023-03-12T00:11:19;0.90;99.90
12025;DHT22;6073;53.230;10.444;2023-03-12T00:13:52;0.80;99.90
12025;DHT22;6073;53.230;10.444;2023-03-12T00:16:19;0.90;99.90
12025;DHT22;6073;53.230;10.444;2023-03-12T00:18:47;0.90;99.90
12025;DHT22;6073;53.230;10.444;2023-03-12T00:21:12;0.80;99.90
12025;DHT22;6073;53.230;10.444;2023-03-12T00:23:38;0.80;99.90
12025;DHT22;6073;53.230;10.444;2023-03-12T00:26:07;0.80;99.90
12025;DHT22;6073;53.230;10.444;2023-03-12T00:28:34;0.80;99.90
12025;DHT22;6073;53.230;10.444;2023-03-12T00:31:00;0.80;99.90
12025;DHT22;6073;53.230;10.444;2023-03-12T00:33:26;0.80;99.90
12025;DHT22;6073;53.230;10.444;2023-03-12T00:35:54;0.80;99.90
12025;DHT22;6073;53.230;10.444;2023-03-12T00:38:19;0.80;99.90
12025;DHT22;6073;53.230;10.444;2023-03-12T00:40:45;0.80;99.90
12025;DHT22;6073;53.230;10.444;2023-03-12T00:43:11;0.70;99.90
12025;DHT22;6073;53.230;10.444;2023-03-12T00:45:36;0.70;99.90
12025;DHT22;6073;53.230;10.444;2023-03-12T00:48:02;0.60;99.90
12025;DHT22;6073;53.230;10.444;2023-03-12T00:50:27;0.60;99.90
12025;DHT22;6073;53.230;10.444;2023-03-12T00:52:53;0.50;99.90
12025;DHT22;6073;53.230;10.444;2023-03-12T00:55:18;0.30;99.90
12025;DHT22;6073;53.230;10.444;2023-03-12T00:57:44;0.10;99.90
12025;DHT22;6073;53.230;10.444;2023-03-12T01:00:11;0.10;99.90
12025;DHT22;6073;53.230;10.444;2023-03-12T01:02:38;0.00;99.90
12025;DHT22;6073;53.230;10.444;2023-03-12T01:05:06;-0.10;99.90
12025;DHT22;6073;53.230;10.444;2023-03-12T01:07:31;-0.20;99.90
12025;DHT22;6073;53.230;10.444;2023-03-12T01:09:57;-0.30;99.90
12025;DHT22;6073;53.230;10.444;2023-03-12T01:12:23;-0.30;99.90
12025;DHT22;6073;53.230;10.444;2023-03-12T01:14:48;-0.30;99.90
12025;DHT22;6073;53.230;10.444;2023-03-12T01:17:14;-0.30;99.90
12025;DHT22;6073;53.230;10.444;2023-03-12T01:19:39;-0.40;99.90
12025;DHT22;6073;53.230;10.444;2023-03-12T01:22:05;-0.40;99.90
12025;DHT22;6073;53.230;10.444;2023-03-12T01:24:31;-0.40;99.90
12025;DHT22;6073;53.230;10.444;2023-03-12T01:26:56;-0.40;99.90
12025;DHT22;6073;53.230;10.444;2023-03-12T01:29:22;-0.30;99.90
12025;DHT22;6073;53.230;10.444;2023-03-12T01:31:48;-0.20;99.90
12025;DHT22;6073;53.230;10.444;2023-03-12T01:34:13;-0.20;99.90
12025;DHT22;6073;53.230;10.444;2023-03-12T01:36:40;-0.30;99.90
12025;DHT22;6073;53.230;10.444;2023-03-12T01:39:05;-0.30;99.90
12025;DHT22;6073;53.230;10.444;2023-03-12T01:41:31;-0.30;99.90
12025;DHT22;6073;53.230;10.444;2023-03-12T01:43:58;-0.40;99.90
12025;DHT22;6073;53.230;10.444;2023-03-12T01:48:58;-0.50;99.90
12025;DHT22;6073;53.230;10.444;2023-03-12T01:51:28;-0.50;99.90
12025;DHT22;6073;53.230;10.444;2023-03-12T01:53:57;-0.50;99.90
12025;DHT22;6073;53.230;10.444;2023-03-12T01:56:26;-0.60;99.90
12025;DHT22;6073;53.230;10.444;2023-03-12T01:58:55;-0.50;99.90
12025;DHT22;6073;53.230;10.444;2023-03-12T02:01:22;-0.60;99.90
12025;DHT22;6073;53.230;10.444;2023-03-12T02:03:50;-0.70;99.90
12025;DHT22;6073;53.230;10.444;2023-03-12T02:06:22;-0.70;99.90
12025;DHT22;6073;53.230;10.444;2023-03-12T02:08:49;-0.70;99.90
12025;DHT22;6073;53.230;10.444;2023-03-12T02:11:15;-0.70;99.90
12025;DHT22;6073;53.230;10.444;2023-03-12T02:13:41;-0.70;99.90
12025;DHT22;6073;53.230;10.444;2023-03-12T02:16:07;-0.60;99.90
12025;DHT22;6073;53.230;10.444;2023-03-12T02:18:33;-0.50;99.90
12025;DHT22;6073;53.230;10.444;2023-03-12T02:21:17;-0.40;99.90
12025;DHT22;6073;53.230;10.444;2023-03-12T02:23:59;-0.30;99.90
12025;DHT22;6073;53.230;10.444;2023-03-12T02:26:28;-0.40;99.90
12025;DHT22;6073;53.230;10.444;2023-03-12T02:28:54;-0.40;99.90
12025;DHT22;6073;53.230;10.444;2023-03-12T02:31:23;-0.40;99.90
12025;DHT22;6073;53.230;10.444;2023-03-12T02:33:50;-0.60;99.90
12025;DHT22;6073;53.230;10.444;2023-03-12T02:36:18;-0.60;99.90
12025;DHT22;6073;53.230;10.444;2023-03-12T02:38:49;-0.70;99.90
12025;DHT22;6073;53.230;10.444;2023-03-12T02:41:34;-0.80;99.90
12025;DHT22;6073;53.230;10.444;2023-03-12T02:44:19;-0.90;99.90
12025;DHT22;6073;53.230;10.444;2023-03-12T02:46:48;-1.00;99.90
12025;DHT22;6073;53.230;10.444;2023-03-12T02:49:15;-1.10;99.90
12025;DHT22;6073;53.230;10.444;2023-03-12T02:51:42;-1.10;99.90
12025;DHT22;6073;53.230;10.444;2023-03-12T02:54:09;-1.10;99.90
12025;DHT22;6073;53.230;10.444;2023-03-12T02:56:36;-1.10;99.90
12025;DHT22;6073;53.230;10.444;2023-03-12T02:59:02;-1.20;99.90
12025;DHT22;6073;53.230;10.444;2023-03-12T03:01:28;-1.20;99.90
12025;DHT22;6073;53.230;10.444;2023-03-12T03:03:53;-1.20;99.90
12025;DHT22;6073;53.230;10.444;2023-03-12T03:06:19;-1.20;99.90
12025;DHT22;6073;53.230;10.444;2023-03-12T03:08:45;-1.20;99.90
12025;DHT22;6073;53.230;10.444;2023-03-12T03:11:10;-1.20;99.90
12025;DHT22;6073;53.230;10.444;2023-03-12T03:13:36;-1.30;99.90
12025;DHT22;6073;53.230;10.444;2023-03-12T03:16:02;-1.40;99.90
12025;DHT22;6073;53.230;10.444;2023-03-12T03:18:30;-1.40;99.90
12025;DHT22;6073;53.230;10.444;2023-03-12T03:21:02;-1.50;99.90
12025;DHT22;6073;53.230;10.444;2023-03-12T03:23:28;-1.60;99.90
12025;DHT22;6073;53.230;10.444;2023-03-12T03:25:55;-1.60;99.90
12025;DHT22;6073;53.230;10.444;2023-03-12T03:28:22;-1.60;99.90
12025;DHT22;6073;53.230;10.444;2023-03-12T03:30:48;-1.60;99.90
12025;DHT22;6073;53.230;10.444;2023-03-12T03:33:16;-1.70;99.90
12025;DHT22;6073;53.230;10.444;2023-03-12T03:35:41;-1.70;99.90
12025;DHT22;6073;53.230;10.444;2023-03-12T03:38:07;-1.70;99.90
12025;DHT22;6073;53.230;10.444;2023-03-12T03:40:33;-1.70;99.90
12025;DHT22;6073;53.230;10.444;2023-03-12T03:42:58;-1.70;99.90
12025;DHT22;6073;53.230;10.444;2023-03-12T03:45:24;-1.70;99.90
12025;DHT22;6073;53.230;10.444;2023-03-12T03:47:50;-1.70;99.90
12025;DHT22;6073;53.230;10.444;2023-03-12T03:50:15;-1.70;99.90
12025;DHT22;6073;53.230;10.444;2023-03-12T03:52:41;-1.70;99.90
12025;DHT22;6073;53.230;10.444;2023-03-12T03:55:07;-1.80;99.90
12025;DHT22;6073;53.230;10.444;2023-03-12T03:57:33;-1.70;99.90
12025;DHT22;6073;53.230;10.444;2023-03-12T03:59:58;-1.80;99.90
12025;DHT22;6073;53.230;10.444;2023-03-12T04:02:25;-1.90;99.90
12025;DHT22;6073;53.230;10.444;2023-03-12T04:04:51;-1.80;99.90
12025;DHT22;6073;53.230;10.444;2023-03-12T04:07:17;-1.80;99.90
12025;DHT22;6073;53.230;10.444;2023-03-12T04:09:43;-1.80;99.90
12025;DHT22;6073;53.230;10.444;2023-03-12T04:12:09;-1.80;99.90
12025;DHT22;6073;53.230;10.444;2023-03-12T04:14:37;-1.90;99.90
12025;DHT22;6073;53.230;10.444;2023-03-12T04:17:03;-1.90;99.90
12025;DHT22;6073;53.230;10.444;2023-03-12T04:19:28;-1.90;99.90
12025;DHT22;6073;53.230;10.444;2023-03-12T04:21:54;-1.90;99.90
12025;DHT22;6073;53.230;10.444;2023-03-12T04:24:19;-1.90;99.90
12025;DHT22;6073;53.230;10.444;2023-03-12T04:26:45;-1.90;99.90
12025;DHT22;6073;53.230;10.444;2023-03-12T04:29:10;-1.90;99.90
12025;DHT22;6073;53.230;10.444;2023-03-12T04:31:36;-1.90;99.90
12025;DHT22;6073;53.230;10.444;2023-03-12T04:34:02;-2.00;99.90
12025;DHT22;6073;53.230;10.444;2023-03-12T04:36:27;-2.00;99.90
12025;DHT22;6073;53.230;10.444;2023-03-12T04:38:53;-2.10;99.90
12025;DHT22;6073;53.230;10.444;2023-03-12T04:41:19;-2.00;99.90
12025;DHT22;6073;53.230;10.444;2023-03-12T04:43:45;-2.10;99.90
12025;DHT22;6073;53.230;10.444;2023-03-12T04:46:10;-2.10;99.90
12025;DHT22;6073;53.230;10.444;2023-03-12T04:48:36;-2.10;99.90
12025;DHT22;6073;53.230;10.444;2023-03-12T04:51:03;-2.10;99.90
12025;DHT22;6073;53.230;10.444;2023-03-12T04:53:29;-2.00;99.90
12025;DHT22;6073;53.230;10.444;2023-03-12T04:55:54;-2.00;99.90
12025;DHT22;6073;53.230;10.444;2023-03-12T04:58:21;-1.90;99.90
12025;DHT22;6073;53.230;10.444;2023-03-12T05:00:48;-1.90;99.90
12025;DHT22;6073;53.230;10.444;2023-03-12T05:03:15;-2.00;99.90
12025;DHT22;6073;53.230;10.444;2023-03-12T05:05:41;-2.00;99.90
12025;DHT22;6073;53.230;10.444;2023-03-12T05:08:06;-2.00;99.90
12025;DHT22;6073;53.230;10.444;2023-03-12T05:10:32;-2.00;99.90
12025;DHT22;6073;53.230;10.444;2023-03-12T05:12:58;-2.00;99.90
12025;DHT22;6073;53.230;10.444;2023-03-12T05:15:23;-2.10;99.90
12025;DHT22;6073;53.230;10.444;2023-03-12T05:17:49;-2.10;99.90
12025;DHT22;6073;53.230;10.444;2023-03-12T05:20:14;-2.10;99.90
12025;DHT22;6073;53.230;10.444;2023-03-12T05:22:42;-2.10;99.90
12025;DHT22;6073;53.230;10.444;2023-03-12T05:25:08;-2.10;99.90
12025;DHT22;6073;53.230;10.444;2023-03-12T05:27:36;-2.10;99.90
12025;DHT22;6073;53.230;10.444;2023-03-12T05:30:04;-2.00;99.90
12025;DHT22;6073;53.230;10.444;2023-03-12T05:32:30;-1.90;99.90
12025;DHT22;6073;53.230;10.444;2023-03-12T05:34:55;-1.90;99.90
12025;DHT22;6073;53.230;10.444;2023-03-12T05:37:21;-1.80;99.90
12025;DHT22;6073;53.230;10.444;2023-03-12T05:39:46;-1.80;99.90
12025;DHT22;6073;53.230;10.444;2023-03-12T05:42:12;-1.70;99.90
12025;DHT22;6073;53.230;10.444;2023-03-12T05:44:39;-1.70;99.90
12025;DHT22;6073;53.230;10.444;2023-03-12T05:47:04;-1.70;99.90
12025;DHT22;6073;53.230;10.444;2023-03-12T05:49:30;-1.70;99.90
12025;DHT22;6073;53.230;10.444;2023-03-12T05:51:56;-1.60;99.90
12025;DHT22;6073;53.230;10.444;2023-03-12T05:54:22;-1.50;99.90
12025;DHT22;6073;53.230;10.444;2023-03-12T05:56:48;-1.40;99.90
12025;DHT22;6073;53.230;10.444;2023-03-12T05:59:13;-1.40;99.90
12025;DHT22;6073;53.230;10.444;2023-03-12T06:01:39;-1.30;99.90
12025;DHT22;6073;53.230;10.444;2023-03-12T06:04:05;-1.20;99.90
12025;DHT22;6073;53.230;10.444;2023-03-12T06:06:32;-1.10;99.90
12025;DHT22;6073;53.230;10.444;2023-03-12T06:08:58;-1.00;99.90
12025;DHT22;6073;53.230;10.444;2023-03-12T06:11:24;-1.00;99.90
12025;DHT22;6073;53.230;10.444;2023-03-12T06:13:50;-1.00;99.90
12025;DHT22;6073;53.230;10.444;2023-03-12T06:16:18;-0.90;99.90
12025;DHT22;6073;53.230;10.444;2023-03-12T06:18:44;-0.90;99.90
12025;DHT22;6073;53.230;10.444;2023-03-12T06:21:15;-0.80;99.90
12025;DHT22;6073;53.230;10.444;2023-03-12T06:23:42;-0.80;99.90
12025;DHT22;6073;53.230;10.444;2023-03-12T06:26:09;-0.80;99.90
12025;DHT22;6073;53.230;10.444;2023-03-12T06:28:35;-0.70;99.90
12025;DHT22;6073;53.230;10.444;2023-03-12T06:31:02;-0.60;99.90
12025;DHT22;6073;53.230;10.444;2023-03-12T06:33:28;-0.50;99.90
12025;DHT22;6073;53.230;10.444;2023-03-12T06:35:55;-0.30;99.90
12025;DHT22;6073;53.230;10.444;2023-03-12T06:38:21;-0.30;99.90
12025;DHT22;6073;53.230;10.444;2023-03-12T06:41:01;-0.20;99.90
12025;DHT22;6073;53.230;10.444;2023-03-12T06:43:28;0.00;99.90
12025;DHT22;6073;53.230;10.444;2023-03-12T06:45:56;0.00;99.90
12025;DHT22;6073;53.230;10.444;2023-03-12T06:48:22;0.00;99.90
12025;DHT22;6073;53.230;10.444;2023-03-12T06:50:48;0.10;99.90
12025;DHT22;6073;53.230;10.444;2023-03-12T06:53:13;0.00;99.90
12025;DHT22;6073;53.230;10.444;2023-03-12T06:55:39;0.00;99.90
12025;DHT22;6073;53.230;10.444;2023-03-12T06:58:05;0.10;99.90
12025;DHT22;6073;53.230;10.444;2023-03-12T07:00:31;0.10;99.90
12025;DHT22;6073;53.230;10.444;2023-03-12T07:02:57;0.10;99.90
12025;DHT22;6073;53.230;10.444;2023-03-12T07:05:23;0.10;99.90
12025;DHT22;6073;53.230;10.444;2023-03-12T07:07:49;0.10;99.90
12025;DHT22;6073;53.230;10.444;2023-03-12T07:10:16;0.20;99.90
12025;DHT22;6073;53.230;10.444;2023-03-12T07:12:42;0.30;99.90
12025;DHT22;6073;53.230;10.444;2023-03-12T07:15:08;0.40;99.90
12025;DHT22;6073;53.230;10.444;2023-03-12T07:17:34;0.50;99.90
12025;DHT22;6073;53.230;10.444;2023-03-12T07:20:00;0.50;99.90
12025;DHT22;6073;53.230;10.444;2023-03-12T07:22:25;0.70;99.90
12025;DHT22;6073;53.230;10.444;2023-03-12T07:24:51;0.80;99.90
12025;DHT22;6073;53.230;10.444;2023-03-12T07:27:16;1.00;99.90
12025;DHT22;6073;53.230;10.444;2023-03-12T07:29:43;1.20;99.90
12025;DHT22;6073;53.230;10.444;2023-03-12T07:32:08;1.40;99.90
12025;DHT22;6073;53.230;10.444;2023-03-12T07:34:34;1.60;99.90
12025;DHT22;6073;53.230;10.444;2023-03-12T07:37:00;1.80;99.90
12025;DHT22;6073;53.230;10.444;2023-03-12T07:39:25;1.80;99.90
12025;DHT22;6073;53.230;10.444;2023-03-12T07:41:51;1.90;99.90
12025;DHT22;6073;53.230;10.444;2023-03-12T07:44:17;1.90;99.90
12025;DHT22;6073;53.230;10.444;2023-03-12T07:46:42;1.60;99.90
12025;DHT22;6073;53.230;10.444;2023-03-12T07:49:08;1.80;99.90
12025;DHT22;6073;53.230;10.444;2023-03-12T07:51:33;1.80;99.90
12025;DHT22;6073;53.230;10.444;2023-03-12T07:53:59;1.80;99.90
12025;DHT22;6073;53.230;10.444;2023-03-12T07:56:24;1.90;99.90
12025;DHT22;6073;53.230;10.444;2023-03-12T07:58:50;2.00;99.90
12025;DHT22;6073;53.230;10.444;2023-03-12T08:01:16;2.10;99.90
12025;DHT22;6073;53.230;10.444;2023-03-12T08:03:41;2.40;99.90
12025;DHT22;6073;53.230;10.444;2023-03-12T08:06:07;2.80;99.90
12025;DHT22;6073;53.230;10.444;2023-03-12T08:08:33;3.10;99.90
12025;DHT22;6073;53.230;10.444;2023-03-12T08:10:59;3.20;99.90
12025;DHT22;6073;53.230;10.444;2023-03-12T08:13:25;3.70;99.90
12025;DHT22;6073;53.230;10.444;2023-03-12T08:15:51;3.70;99.90
12025;DHT22;6073;53.230;10.444;2023-03-12T08:18:18;3.40;99.90
12025;DHT22;6073;53.230;10.444;2023-03-12T08:20:44;3.40;99.90
12025;DHT22;6073;53.230;10.444;2023-03-12T08:23:10;3.10;99.90
12025;DHT22;6073;53.230;10.444;2023-03-12T08:25:36;3.00;99.90
12025;DHT22;6073;53.230;10.444;2023-03-12T08:28:02;3.10;99.90
12025;DHT22;6073;53.230;10.444;2023-03-12T08:30:29;3.10;99.90
12025;DHT22;6073;53.230;10.444;2023-03-12T08:32:55;3.50;99.90
12025;DHT22;6073;53.230;10.444;2023-03-12T08:35:21;3.70;99.90
12025;DHT22;6073;53.230;10.444;2023-03-12T08:37:46;3.90;99.90
12025;DHT22;6073;53.230;10.444;2023-03-12T08:40:12;4.50;99.90
12025;DHT22;6073;53.230;10.444;2023-03-12T08:42:39;4.50;99.90
12025;DHT22;6073;53.230;10.444;2023-03-12T08:45:06;4.70;99.90
12025;DHT22;6073;53.230;10.444;2023-03-12T08:47:31;4.90;99.90
12025;DHT22;6073;53.230;10.444;2023-03-12T08:49:57;4.60;99.90
12025;DHT22;6073;53.230;10.444;2023-03-12T08:52:23;4.20;99.90
12025;DHT22;6073;53.230;10.444;2023-03-12T08:54:48;4.00;99.90
12025;DHT22;6073;53.230;10.444;2023-03-12T08:57:14;3.90;99.90
12025;DHT22;6073;53.230;10.444;2023-03-12T08:59:40;3.90;99.90
12025;DHT22;6073;53.230;10.444;2023-03-12T09:02:06;4.10;99.90
12025;DHT22;6073;53.230;10.444;2023-03-12T09:04:31;3.90;99.90
12025;DHT22;6073;53.230;10.444;2023-03-12T09:06:59;3.80;99.90
12025;DHT22;6073;53.230;10.444;2023-03-12T09:09:24;3.70;99.90
12025;DHT22;6073;53.230;10.444;2023-03-12T09:11:50;3.70;99.90
12025;DHT22;6073;53.230;10.444;2023-03-12T09:14:15;3.80;99.90
12025;DHT22;6073;53.230;10.444;2023-03-12T09:16:41;3.60;99.90
12025;DHT22;6073;53.230;10.444;2023-03-12T09:19:06;3.60;99.90
12025;DHT22;6073;53.230;10.444;2023-03-12T09:21:32;3.60;99.90
12025;DHT22;6073;53.230;10.444;2023-03-12T09:23:57;3.80;99.90
12025;DHT22;6073;53.230;10.444;2023-03-12T09:26:23;4.00;99.90
12025;DHT22;6073;53.230;10.444;2023-03-12T09:28:49;4.10;99.90
12025;DHT22;6073;53.230;10.444;2023-03-12T09:31:14;4.20;99.90
12025;DHT22;6073;53.230;10.444;2023-03-12T09:33:40;4.40;99.90
12025;DHT22;6073;53.230;10.444;2023-03-12T09:36:05;4.60;99.90
12025;DHT22;6073;53.230;10.444;2023-03-12T09:38:31;4.80;99.90
12025;DHT22;6073;53.230;10.444;2023-03-12T09:41:00;4.70;99.90
12025;DHT22;6073;53.230;10.444;2023-03-12T09:44:02;4.70;99.90
12025;DHT22;6073;53.230;10.444;2023-03-12T09:46:34;4.60;99.90
12025;DHT22;6073;53.230;10.444;2023-03-12T09:49:04;4.50;99.90
12025;DHT22;6073;53.230;10.444;2023-03-12T09:51:34;4.50;99.90
12025;DHT22;6073;53.230;10.444;2023-03-12T09:54:05;4.70;99.90
12025;DHT22;6073;53.230;10.444;2023-03-12T09:56:32;4.80;99.90
12025;DHT22;6073;53.230;10.444;2023-03-12T09:58:58;4.90;99.90
12025;DHT22;6073;53.230;10.444;2023-03-12T10:01:46;5.00;99.90
12025;DHT22;6073;53.230;10.444;2023-03-12T10:06:58;5.20;99.90
12025;DHT22;6073;53.230;10.444;2023-03-12T10:15:31;4.60;99.90
12025;DHT22;6073;53.230;10.444;2023-03-12T10:18:17;4.50;99.90
12025;DHT22;6073;53.230;10.444;2023-03-12T10:21:03;4.70;99.90
12025;DHT22;6073;53.230;10.444;2023-03-12T10:26:37;5.30;99.90
12025;DHT22;6073;53.230;10.444;2023-03-12T10:29:21;5.60;99.90
12025;DHT22;6073;53.230;10.444;2023-03-12T10:37:35;5.90;99.90
12025;DHT22;6073;53.230;10.444;2023-03-12T10:39:58;5.90;99.90
12025;DHT22;6073;53.230;10.444;2023-03-12T10:42:28;5.90;99.90
12025;DHT22;6073;53.230;10.444;2023-03-12T10:47:52;5.90;99.90
12025;DHT22;6073;53.230;10.444;2023-03-12T10:50:27;5.80;99.90
12025;DHT22;6073;53.230;10.444;2023-03-12T10:53:27;5.90;99.90
12025;DHT22;6073;53.230;10.444;2023-03-12T10:55:59;5.80;99.90
12025;DHT22;6073;53.230;10.444;2023-03-12T10:58:25;5.80;99.90
12025;DHT22;6073;53.230;10.444;2023-03-12T11:00:57;5.90;99.90
12025;DHT22;6073;53.230;10.444;2023-03-12T11:03:24;5.80;99.90
12025;DHT22;6073;53.230;10.444;2023-03-12T11:05:53;5.60;99.90
12025;DHT22;6073;53.230;10.444;2023-03-12T11:08:28;5.50;99.90
12025;DHT22;6073;53.230;10.444;2023-03-12T11:10:56;5.40;99.90
12025;DHT22;6073;53.230;10.444;2023-03-12T11:13:33;5.20;99.90
12025;DHT22;6073;53.230;10.444;2023-03-12T11:16:01;5.30;99.90
12025;DHT22;6073;53.230;10.444;2023-03-12T11:18:33;5.20;99.90
12025;DHT22;6073;53.230;10.444;2023-03-12T11:23:34;5.10;99.90
12025;DHT22;6073;53.230;10.444;2023-03-12T11:26:03;5.00;99.90
12025;DHT22;6073;53.230;10.444;2023-03-12T11:28:37;5.00;99.90
12025;DHT22;6073;53.230;10.444;2023-03-12T11:31:08;5.00;99.90
12025;DHT22;6073;53.230;10.444;2023-03-12T11:33:35;4.80;99.90
12025;DHT22;6073;53.230;10.444;2023-03-12T11:36:44;4.80;99.90
12025;DHT22;6073;53.230;10.444;2023-03-12T11:41:55;4.90;99.90
12025;DHT22;6073;53.230;10.444;2023-03-12T11:47:35;4.90;99.90
12025;DHT22;6073;53.230;10.444;2023-03-12T11:50:07;4.90;99.90
12025;DHT22;6073;53.230;10.444;2023-03-12T11:55:37;4.90;99.90
12025;DHT22;6073;53.230;10.444;2023-03-12T11:58:29;4.70;99.90
12025;DHT22;6073;53.230;10.444;2023-03-12T12:01:12;4.80;99.90
12025;DHT22;6073;53.230;10.444;2023-03-12T12:06:55;4.80;99.90
12025;DHT22;6073;53.230;10.444;2023-03-12T12:14:58;5.00;99.90
12025;DHT22;6073;53.230;10.444;2023-03-12T12:17:41;5.00;99.90
12025;DHT22;6073;53.230;10.444;2023-03-12T12:20:20;5.00;99.90
12025;DHT22;6073;53.230;10.444;2023-03-12T12:26:03;5.00;99.90
12025;DHT22;6073;53.230;10.444;2023-03-12T12:28:44;4.90;99.90
12025;DHT22;6073;53.230;10.444;2023-03-12T12:31:28;4.90;99.90
12025;DHT22;6073;53.230;10.444;2023-03-12T12:34:16;4.80;99.90
12025;DHT22;6073;53.230;10.444;2023-03-12T12:36:49;4.70;99.90
12025;DHT22;6073;53.230;10.444;2023-03-12T12:39:34;4.90;99.90
12025;DHT22;6073;53.230;10.444;2023-03-12T12:42:05;4.70;99.90
12025;DHT22;6073;53.230;10.444;2023-03-12T12:44:48;4.70;99.90
12025;DHT22;6073;53.230;10.444;2023-03-12T12:47:18;4.80;99.90
12025;DHT22;6073;53.230;10.444;2023-03-12T12:50:10;4.80;99.90
12025;DHT22;6073;53.230;10.444;2023-03-12T12:52:38;4.80;99.90
12025;DHT22;6073;53.230;10.444;2023-03-12T12:55:36;4.80;99.90
12025;DHT22;6073;53.230;10.444;2023-03-12T12:58:12;4.70;99.90
12025;DHT22;6073;53.230;10.444;2023-03-12T13:00:48;4.90;99.90
12025;DHT22;6073;53.230;10.444;2023-03-12T13:03:18;4.90;99.90
12025;DHT22;6073;53.230;10.444;2023-03-12T13:05:59;4.90;99.90
12025;DHT22;6073;53.230;10.444;2023-03-12T13:09:00;4.90;99.90
12025;DHT22;6073;53.230;10.444;2023-03-12T13:11:37;4.90;99.90
12025;DHT22;6073;53.230;10.444;2023-03-12T13:18:57;4.90;99.90
12025;DHT22;6073;53.230;10.444;2023-03-12T13:24:39;4.90;99.90
12025;DHT22;6073;53.230;10.444;2023-03-12T13:27:33;4.70;99.90
12025;DHT22;6073;53.230;10.444;2023-03-12T13:40:36;4.10;99.90
12025;DHT22;6073;53.230;10.444;2023-03-12T13:46:07;4.10;99.90
12025;DHT22;6073;53.230;10.444;2023-03-12T13:48:46;4.10;99.90
12025;DHT22;6073;53.230;10.444;2023-03-12T13:53:52;3.90;99.90
12025;DHT22;6073;53.230;10.444;2023-03-12T13:56:31;3.70;99.90
12025;DHT22;6073;53.230;10.444;2023-03-12T13:59:05;3.70;99.90
12025;DHT22;6073;53.230;10.444;2023-03-12T14:04:06;3.80;99.90
12025;DHT22;6073;53.230;10.444;2023-03-12T14:07:00;4.00;99.90
12025;DHT22;6073;53.230;10.444;2023-03-12T14:15:26;3.70;99.90
12025;DHT22;6073;53.230;10.444;2023-03-12T14:17:58;3.60;99.90
12025;DHT22;6073;53.230;10.444;2023-03-12T14:20:24;3.60;99.90
12025;DHT22;6073;53.230;10.444;2023-03-12T14:23:03;3.50;99.90
12025;DHT22;6073;53.230;10.444;2023-03-12T14:25:40;3.40;99.90
12025;DHT22;6073;53.230;10.444;2023-03-12T14:28:15;3.40;99.90
12025;DHT22;6073;53.230;10.444;2023-03-12T14:33:13;3.40;99.90
12025;DHT22;6073;53.230;10.444;2023-03-12T14:35:56;3.10;99.90
12025;DHT22;6073;53.230;10.444;2023-03-12T14:38:43;3.00;99.90
12025;DHT22;6073;53.230;10.444;2023-03-12T14:41:18;3.00;99.90
12025;DHT22;6073;53.230;10.444;2023-03-12T14:43:45;3.10;99.90
12025;DHT22;6073;53.230;10.444;2023-03-12T14:46:19;3.10;99.90
12025;DHT22;6073;53.230;10.444;2023-03-12T14:48:50;3.10;99.90
12025;DHT22;6073;53.230;10.444;2023-03-12T14:51:25;3.10;99.90
12025;DHT22;6073;53.230;10.444;2023-03-12T14:53:52;3.10;99.90
12025;DHT22;6073;53.230;10.444;2023-03-12T14:58:57;3.00;99.90
12025;DHT22;6073;53.230;10.444;2023-03-12T15:01:27;3.00;99.90
12025;DHT22;6073;53.230;10.444;2023-03-12T15:03:59;3.00;99.90
12025;DHT22;6073;53.230;10.444;2023-03-12T15:06:34;3.00;99.90
12025;DHT22;6073;53.230;10.444;2023-03-12T15:09:04;2.90;99.90
12025;DHT22;6073;53.230;10.444;2023-03-12T15:11:33;2.90;99.90
12025;DHT22;6073;53.230;10.444;2023-03-12T15:14:11;2.90;99.90
12025;DHT22;6073;53.230;10.444;2023-03-12T15:16:39;2.80;99.90
12025;DHT22;6073;53.230;10.444;2023-03-12T15:19:05;2.70;99.90
12025;DHT22;6073;53.230;10.444;2023-03-12T15:21:34;2.70;99.90
12025;DHT22;6073;53.230;10.444;2023-03-12T15:24:00;2.70;99.90
12025;DHT22;6073;53.230;10.444;2023-03-12T15:26:29;2.60;99.90
12025;DHT22;6073;53.230;10.444;2023-03-12T15:31:46;2.50;99.90
12025;DHT22;6073;53.230;10.444;2023-03-12T15:36:57;2.50;99.90
12025;DHT22;6073;53.230;10.444;2023-03-12T15:39:30;2.50;99.90
12025;DHT22;6073;53.230;10.444;2023-03-12T15:42:00;2.40;99.90
12025;DHT22;6073;53.230;10.444;2023-03-12T15:44:30;2.30;99.90
12025;DHT22;6073;53.230;10.444;2023-03-12T15:47:08;2.30;99.90
12025;DHT22;6073;53.230;10.444;2023-03-12T15:49:36;2.20;99.90
12025;DHT22;6073;53.230;10.444;2023-03-12T15:54:42;2.20;99.90
12025;DHT22;6073;53.230;10.444;2023-03-12T15:57:22;2.10;99.90
12025;DHT22;6073;53.230;10.444;2023-03-12T16:05:15;2.10;99.90
12025;DHT22;6073;53.230;10.444;2023-03-12T16:07:41;2.10;99.90
12025;DHT22;6073;53.230;10.444;2023-03-12T16:10:13;2.00;99.90
12025;DHT22;6073;53.230;10.444;2023-03-12T16:12:41;2.00;99.90
12025;DHT22;6073;53.230;10.444;2023-03-12T16:15:13;2.00;99.90
12025;DHT22;6073;53.230;10.444;2023-03-12T16:17:39;2.00;99.90
12025;DHT22;6073;53.230;10.444;2023-03-12T16:20:05;2.10;99.90
12025;DHT22;6073;53.230;10.444;2023-03-12T16:22:31;2.10;99.90
12025;DHT22;6073;53.230;10.444;2023-03-12T16:24:56;2.20;99.90
12025;DHT22;6073;53.230;10.444;2023-03-12T16:27:22;2.10;99.90
12025;DHT22;6073;53.230;10.444;2023-03-12T16:29:47;2.20;99.90
12025;DHT22;6073;53.230;10.444;2023-03-12T16:32:15;2.20;99.90
12025;DHT22;6073;53.230;10.444;2023-03-12T16:34:41;2.10;99.90
12025;DHT22;6073;53.230;10.444;2023-03-12T16:37:11;2.10;99.90
12025;DHT22;6073;53.230;10.444;2023-03-12T16:39:37;2.10;99.90
12025;DHT22;6073;53.230;10.444;2023-03-12T16:42:08;2.10;99.90
12025;DHT22;6073;53.230;10.444;2023-03-12T16:44:37;2.10;99.90
12025;DHT22;6073;53.230;10.444;2023-03-12T16:47:07;2.20;99.90
12025;DHT22;6073;53.230;10.444;2023-03-12T16:49:33;2.10;99.90
12025;DHT22;6073;53.230;10.444;2023-03-12T16:51:59;2.20;99.90
12025;DHT22;6073;53.230;10.444;2023-03-12T16:54:24;2.20;99.90
12025;DHT22;6073;53.230;10.444;2023-03-12T16:56:50;2.20;99.90
12025;DHT22;6073;53.230;10.444;2023-03-12T16:59:23;2.20;99.90
12025;DHT22;6073;53.230;10.444;2023-03-12T17:01:49;2.20;99.90
12025;DHT22;6073;53.230;10.444;2023-03-12T17:04:15;2.20;99.90
12025;DHT22;6073;53.230;10.444;2023-03-12T17:06:40;2.10;99.90
12025;DHT22;6073;53.230;10.444;2023-03-12T17:09:06;2.20;99.90
12025;DHT22;6073;53.230;10.444;2023-03-12T17:11:33;2.20;99.90
12025;DHT22;6073;53.230;10.444;2023-03-12T17:14:03;2.20;99.90
12025;DHT22;6073;53.230;10.444;2023-03-12T17:16:29;2.10;99.90
12025;DHT22;6073;53.230;10.444;2023-03-12T17:18:55;2.20;99.90
12025;DHT22;6073;53.230;10.444;2023-03-12T17:21:21;2.20;99.90
12025;DHT22;6073;53.230;10.444;2023-03-12T17:23:48;2.20;99.90
12025;DHT22;6073;53.230;10.444;2023-03-12T17:26:14;2.30;99.90
12025;DHT22;6073;53.230;10.444;2023-03-12T17:28:40;2.20;99.90